sensor_id;sensor_type;location;lat;lon;timestamp;P1;durP1;ratioP1;P2;durP2;ratioP2
18677;SDS011;9469;51.114;13.914;2023-06-22T00:01:30;9.33;;;7.83;;
18677;SDS011;9469;51.114;13.914;2023-06-22T00:06:39;12.30;;;8.90;;
18677;SDS011;9469;51.114;13.914;2023-06-22T00:11:44;12.90;;;9.30;;
18677;SDS011;9469;51.114;13.914;2023-06-22T00:16:52;11.23;;;9.00;;
18677;SDS011;9469;51.114;13.914;2023-06-22T00:22:01;11.07;;;8.50;;
18677;SDS011;9469;51.114;13.914;2023-06-22T00:27:07;11.27;;;9.70;;
18677;SDS011;9469;51.114;13.914;2023-06-22T00:32:12;11.67;;;8.90;;
18677;SDS011;9469;51.114;13.914;2023-06-22T00:37:24;10.80;;;9.00;;
18677;SDS011;9469;51.114;13.914;2023-06-22T00:42:31;13.87;;;9.07;;
18677;SDS011;9469;51.114;13.914;2023-06-22T00:47:37;10.47;;;9.13;;
18677;SDS011;9469;51.114;13.914;2023-06-22T00:52:47;13.60;;;9.50;;
18677;SDS011;9469;51.114;13.914;2023-06-22T00:57:57;11.50;;;10.27;;
18677;SDS011;9469;51.114;13.914;2023-06-22T01:03:03;12.57;;;9.50;;
18677;SDS011;9469;51.114;13.914;2023-06-22T01:08:16;10.17;;;8.73;;
18677;SDS011;9469;51.114;13.914;2023-06-22T01:13:32;13.10;;;8.83;;
18677;SDS011;9469;51.114;13.914;2023-06-22T01:18:45;14.47;;;9.53;;
18677;SDS011;9469;51.114;13.914;2023-06-22T01:24:01;12.17;;;9.97;;
18677;SDS011;9469;51.114;13.914;2023-06-22T01:29:17;13.57;;;8.87;;
18677;SDS011;9469;51.114;13.914;2023-06-22T01:34:25;12.53;;;9.13;;
18677;SDS011;9469;51.114;13.914;2023-06-22T01:39:37;10.87;;;9.03;;
18677;SDS011;9469;51.114;13.914;2023-06-22T01:44:47;14.43;;;11.07;;
18677;SDS011;9469;51.114;13.914;2023-06-22T01:49:52;12.73;;;9.27;;
18677;SDS011;9469;51.114;13.914;2023-06-22T01:54:59;10.83;;;9.73;;
18677;SDS011;9469;51.114;13.914;2023-06-22T02:00:11;15.37;;;9.60;;
18677;SDS011;9469;51.114;13.914;2023-06-22T02:05:25;13.03;;;9.80;;
18677;SDS011;9469;51.114;13.914;2023-06-22T02:10:36;13.53;;;10.37;;
18677;SDS011;9469;51.114;13.914;2023-06-22T02:15:46;11.17;;;9.77;;
18677;SDS011;9469;51.114;13.914;2023-06-22T02:20:52;14.63;;;10.27;;
18677;SDS011;9469;51.114;13.914;2023-06-22T02:25:57;10.73;;;9.43;;
18677;SDS011;9469;51.114;13.914;2023-06-22T02:31:05;13.83;;;9.77;;
18677;SDS011;9469;51.114;13.914;2023-06-22T02:36:10;13.13;;;10.13;;
18677;SDS011;9469;51.114;13.914;2023-06-22T02:41:15;11.87;;;10.00;;
18677;SDS011;9469;51.114;13.914;2023-06-22T02:46:25;14.03;;;11.03;;
18677;SDS011;9469;51.114;13.914;2023-06-22T02:56:38;14.57;;;9.90;;
18677;SDS011;9469;51.114;13.914;2023-06-22T03:01:48;11.90;;;9.47;;
18677;SDS011;9469;51.114;13.914;2023-06-22T03:06:59;13.67;;;9.63;;
18677;SDS011;9469;51.114;13.914;2023-06-22T03:12:08;14.20;;;10.60;;
18677;SDS011;9469;51.114;13.914;2023-06-22T03:17:27;17.57;;;12.50;;
18677;SDS011;9469;51.114;13.914;2023-06-22T03:22:32;14.30;;;11.53;;
18677;SDS011;9469;51.114;13.914;2023-06-22T03:27:37;12.93;;;11.13;;
18677;SDS011;9469;51.114;13.914;2023-06-22T03:32:45;12.53;;;10.43;;
18677;SDS011;9469;51.114;13.914;2023-06-22T03:37:51;15.27;;;9.90;;
18677;SDS011;9469;51.114;13.914;2023-06-22T03:42:56;12.17;;;10.87;;
18677;SDS011;9469;51.114;13.914;2023-06-22T03:48:06;13.23;;;10.47;;
18677;SDS011;9469;51.114;13.914;2023-06-22T03:53:15;10.30;;;8.93;;
18677;SDS011;9469;51.114;13.914;2023-06-22T03:58:21;20.83;;;10.57;;
18677;SDS011;9469;51.114;13.914;2023-06-22T04:03:29;14.53;;;9.37;;
18677;SDS011;9469;51.114;13.914;2023-06-22T04:08:34;14.00;;;9.57;;
18677;SDS011;9469;51.114;13.914;2023-06-22T04:13:40;15.40;;;10.37;;
18677;SDS011;9469;51.114;13.914;2023-06-22T04:18:47;12.50;;;9.93;;
18677;SDS011;9469;51.114;13.914;2023-06-22T04:23:53;10.37;;;9.30;;
18677;SDS011;9469;51.114;13.914;2023-06-22T04:28:58;13.83;;;9.83;;
18677;SDS011;9469;51.114;13.914;2023-06-22T04:34:09;12.40;;;9.63;;
18677;SDS011;9469;51.114;13.914;2023-06-22T04:39:19;15.50;;;11.10;;
18677;SDS011;9469;51.114;13.914;2023-06-22T04:44:25;15.60;;;11.10;;
18677;SDS011;9469;51.114;13.914;2023-06-22T04:49:33;17.10;;;10.60;;
18677;SDS011;9469;51.114;13.914;2023-06-22T04:54:42;14.83;;;10.77;;
18677;SDS011;9469;51.114;13.914;2023-06-22T04:59:49;13.73;;;10.20;;
18677;SDS011;9469;51.114;13.914;2023-06-22T05:04:57;13.13;;;10.17;;
18677;SDS011;9469;51.114;13.914;2023-06-22T05:10:02;14.23;;;9.73;;
18677;SDS011;9469;51.114;13.914;2023-06-22T05:15:13;11.63;;;10.37;;
18677;SDS011;9469;51.114;13.914;2023-06-22T05:20:23;12.50;;;9.80;;
18677;SDS011;9469;51.114;13.914;2023-06-22T05:25:30;15.03;;;10.07;;
18677;SDS011;9469;51.114;13.914;2023-06-22T05:30:35;12.23;;;10.10;;
18677;SDS011;9469;51.114;13.914;2023-06-22T05:35:44;18.30;;;10.20;;
18677;SDS011;9469;51.114;13.914;2023-06-22T05:40:49;10.77;;;9.77;;
18677;SDS011;9469;51.114;13.914;2023-06-22T05:45:54;17.30;;;9.93;;
18677;SDS011;9469;51.114;13.914;2023-06-22T05:51:02;12.43;;;10.40;;
18677;SDS011;9469;51.114;13.914;2023-06-22T05:56:07;12.00;;;10.85;;
18677;SDS011;9469;51.114;13.914;2023-06-22T06:01:12;13.10;;;10.43;;
18677;SDS011;9469;51.114;13.914;2023-06-22T06:06:20;14.38;;;11.55;;
18677;SDS011;9469;51.114;13.914;2023-06-22T06:11:30;13.25;;;11.88;;
18677;SDS011;9469;51.114;13.914;2023-06-22T06:16:35;13.88;;;10.98;;
18677;SDS011;9469;51.114;13.914;2023-06-22T06:21:44;13.52;;;9.75;;
18677;SDS011;9469;51.114;13.914;2023-06-22T06:26:49;11.15;;;9.98;;
18677;SDS011;9469;51.114;13.914;2023-06-22T06:31:57;13.60;;;11.43;;
18677;SDS011;9469;51.114;13.914;2023-06-22T06:37:06;18.45;;;11.63;;
18677;SDS011;9469;51.114;13.914;2023-06-22T06:42:13;13.48;;;11.07;;
18677;SDS011;9469;51.114;13.914;2023-06-22T06:47:21;13.07;;;11.20;;
18677;SDS011;9469;51.114;13.914;2023-06-22T06:52:29;18.00;;;10.82;;
18677;SDS011;9469;51.114;13.914;2023-06-22T06:57:34;12.98;;;11.57;;
18677;SDS011;9469;51.114;13.914;2023-06-22T07:02:40;14.80;;;11.48;;
18677;SDS011;9469;51.114;13.914;2023-06-22T07:07:50;12.55;;;11.32;;
18677;SDS011;9469;51.114;13.914;2023-06-22T07:12:55;12.18;;;10.75;;
18677;SDS011;9469;51.114;13.914;2023-06-22T07:18:03;12.82;;;11.30;;
18677;SDS011;9469;51.114;13.914;2023-06-22T07:23:11;16.10;;;12.05;;
18677;SDS011;9469;51.114;13.914;2023-06-22T07:28:17;12.30;;;10.70;;
18677;SDS011;9469;51.114;13.914;2023-06-22T07:33:22;12.00;;;10.80;;
18677;SDS011;9469;51.114;13.914;2023-06-22T07:38:30;13.30;;;9.52;;
18677;SDS011;9469;51.114;13.914;2023-06-22T07:43:35;13.93;;;10.10;;
18677;SDS011;9469;51.114;13.914;2023-06-22T07:48:41;10.68;;;8.68;;
18677;SDS011;9469;51.114;13.914;2023-06-22T07:53:57;10.65;;;9.55;;
18677;SDS011;9469;51.114;13.914;2023-06-22T07:59:03;14.13;;;9.57;;
18677;SDS011;9469;51.114;13.914;2023-06-22T08:04:08;14.63;;;9.70;;
18677;SDS011;9469;51.114;13.914;2023-06-22T08:09:19;10.10;;;8.55;;
18677;SDS011;9469;51.114;13.914;2023-06-22T08:14:29;12.63;;;10.23;;
18677;SDS011;9469;51.114;13.914;2023-06-22T08:19:36;10.70;;;9.57;;
18677;SDS011;9469;51.114;13.914;2023-06-22T08:24:45;11.40;;;9.10;;
18677;SDS011;9469;51.114;13.914;2023-06-22T08:29:50;10.32;;;9.18;;
18677;SDS011;9469;51.114;13.914;2023-06-22T08:35:00;14.32;;;9.63;;
18677;SDS011;9469;51.114;13.914;2023-06-22T08:40:08;10.25;;;8.90;;
18677;SDS011;9469;51.114;13.914;2023-06-22T08:45:25;11.45;;;9.05;;
18677;SDS011;9469;51.114;13.914;2023-06-22T08:50:31;11.05;;;9.50;;
18677;SDS011;9469;51.114;13.914;2023-06-22T08:55:43;11.52;;;9.30;;
18677;SDS011;9469;51.114;13.914;2023-06-22T09:00:49;10.57;;;9.40;;
18677;SDS011;9469;51.114;13.914;2023-06-22T09:05:54;9.18;;;8.10;;
18677;SDS011;9469;51.114;13.914;2023-06-22T09:11:02;10.35;;;8.70;;
18677;SDS011;9469;51.114;13.914;2023-06-22T09:16:08;9.05;;;8.15;;
18677;SDS011;9469;51.114;13.914;2023-06-22T09:21:15;10.77;;;8.07;;
18677;SDS011;9469;51.114;13.914;2023-06-22T09:26:23;9.65;;;7.93;;
18677;SDS011;9469;51.114;13.914;2023-06-22T09:31:28;10.98;;;9.23;;
18677;SDS011;9469;51.114;13.914;2023-06-22T09:36:33;11.73;;;8.77;;
18677;SDS011;9469;51.114;13.914;2023-06-22T09:41:46;9.50;;;7.75;;
18677;SDS011;9469;51.114;13.914;2023-06-22T09:46:51;9.05;;;8.15;;
18677;SDS011;9469;51.114;13.914;2023-06-22T09:51:57;9.35;;;8.38;;
18677;SDS011;9469;51.114;13.914;2023-06-22T09:57:05;8.13;;;7.32;;
18677;SDS011;9469;51.114;13.914;2023-06-22T10:02:10;16.77;;;8.20;;
18677;SDS011;9469;51.114;13.914;2023-06-22T10:07:15;9.20;;;7.70;;
18677;SDS011;9469;51.114;13.914;2023-06-22T10:12:26;13.73;;;7.20;;
18677;SDS011;9469;51.114;13.914;2023-06-22T10:17:32;8.98;;;8.07;;
18677;SDS011;9469;51.114;13.914;2023-06-22T10:22:38;10.70;;;7.68;;
18677;SDS011;9469;51.114;13.914;2023-06-22T10:27:48;8.27;;;7.43;;
18677;SDS011;9469;51.114;13.914;2023-06-22T10:32:53;8.07;;;7.28;;
18677;SDS011;9469;51.114;13.914;2023-06-22T10:37:59;7.88;;;7.10;;
18677;SDS011;9469;51.114;13.914;2023-06-22T10:43:07;6.75;;;6.10;;
18677;SDS011;9469;51.114;13.914;2023-06-22T10:48:12;8.70;;;6.97;;
18677;SDS011;9469;51.114;13.914;2023-06-22T10:53:18;10.68;;;7.13;;
18677;SDS011;9469;51.114;13.914;2023-06-22T10:58:26;7.70;;;6.90;;
18677;SDS011;9469;51.114;13.914;2023-06-22T11:03:33;7.32;;;6.55;;
18677;SDS011;9469;51.114;13.914;2023-06-22T11:08:43;7.30;;;6.60;;
18677;SDS011;9469;51.114;13.914;2023-06-22T11:14:12;7.28;;;6.55;;
18677;SDS011;9469;51.114;13.914;2023-06-22T11:19:22;8.93;;;7.32;;
18677;SDS011;9469;51.114;13.914;2023-06-22T11:24:28;10.35;;;7.10;;
18677;SDS011;9469;51.114;13.914;2023-06-22T11:29:36;8.65;;;6.70;;
18677;SDS011;9469;51.114;13.914;2023-06-22T11:34:41;7.90;;;7.05;;
18677;SDS011;9469;51.114;13.914;2023-06-22T11:39:46;8.80;;;7.00;;
18677;SDS011;9469;51.114;13.914;2023-06-22T11:45:11;10.68;;;7.65;;
18677;SDS011;9469;51.114;13.914;2023-06-22T11:50:16;8.95;;;6.95;;
18677;SDS011;9469;51.114;13.914;2023-06-22T11:55:21;7.85;;;7.00;;
18677;SDS011;9469;51.114;13.914;2023-06-22T12:00:30;10.35;;;7.30;;
18677;SDS011;9469;51.114;13.914;2023-06-22T12:05:50;9.57;;;7.05;;
18677;SDS011;9469;51.114;13.914;2023-06-22T12:10:56;9.80;;;7.53;;
18677;SDS011;9469;51.114;13.914;2023-06-22T12:16:04;8.77;;;7.60;;
18677;SDS011;9469;51.114;13.914;2023-06-22T12:21:10;10.38;;;7.85;;
18677;SDS011;9469;51.114;13.914;2023-06-22T12:26:15;8.27;;;6.55;;
18677;SDS011;9469;51.114;13.914;2023-06-22T12:31:23;8.60;;;7.50;;
18677;SDS011;9469;51.114;13.914;2023-06-22T12:36:30;15.57;;;8.52;;
18677;SDS011;9469;51.114;13.914;2023-06-22T12:41:43;9.90;;;7.22;;
18677;SDS011;9469;51.114;13.914;2023-06-22T12:46:52;8.80;;;6.45;;
18677;SDS011;9469;51.114;13.914;2023-06-22T12:51:59;9.90;;;7.25;;
18677;SDS011;9469;51.114;13.914;2023-06-22T12:57:06;7.45;;;6.72;;
18677;SDS011;9469;51.114;13.914;2023-06-22T13:02:15;10.73;;;7.18;;
18677;SDS011;9469;51.114;13.914;2023-06-22T13:07:25;7.75;;;7.05;;
18677;SDS011;9469;51.114;13.914;2023-06-22T13:12:32;8.38;;;7.00;;
18677;SDS011;9469;51.114;13.914;2023-06-22T13:17:39;7.70;;;7.00;;
18677;SDS011;9469;51.114;13.914;2023-06-22T13:22:47;8.27;;;7.43;;
18677;SDS011;9469;51.114;13.914;2023-06-22T13:27:59;8.13;;;7.30;;
18677;SDS011;9469;51.114;13.914;2023-06-22T13:33:11;10.32;;;6.97;;
18677;SDS011;9469;51.114;13.914;2023-06-22T13:38:17;8.32;;;7.53;;
18677;SDS011;9469;51.114;13.914;2023-06-22T13:43:24;8.18;;;7.13;;
18677;SDS011;9469;51.114;13.914;2023-06-22T13:48:32;7.82;;;6.95;;
18677;SDS011;9469;51.114;13.914;2023-06-22T13:53:37;11.13;;;7.38;;
18677;SDS011;9469;51.114;13.914;2023-06-22T13:58:45;8.43;;;7.03;;
18677;SDS011;9469;51.114;13.914;2023-06-22T14:09:24;10.25;;;7.28;;
18677;SDS011;9469;51.114;13.914;2023-06-22T14:14:42;14.85;;;7.72;;
18677;SDS011;9469;51.114;13.914;2023-06-22T14:20:13;9.07;;;7.35;;
18677;SDS011;9469;51.114;13.914;2023-06-22T14:25:20;9.40;;;7.47;;
18677;SDS011;9469;51.114;13.914;2023-06-22T14:30:28;9.45;;;7.50;;
18677;SDS011;9469;51.114;13.914;2023-06-22T14:35:38;12.43;;;7.63;;
18677;SDS011;9469;51.114;13.914;2023-06-22T14:40:44;8.88;;;7.97;;
18677;SDS011;9469;51.114;13.914;2023-06-22T14:46:10;9.57;;;7.32;;
18677;SDS011;9469;51.114;13.914;2023-06-22T14:51:20;8.68;;;7.28;;
18677;SDS011;9469;51.114;13.914;2023-06-22T14:56:28;8.25;;;7.25;;
18677;SDS011;9469;51.114;13.914;2023-06-22T15:01:36;9.85;;;7.43;;
18677;SDS011;9469;51.114;13.914;2023-06-22T15:06:45;8.38;;;7.57;;
18677;SDS011;9469;51.114;13.914;2023-06-22T15:11:50;8.27;;;7.50;;
18677;SDS011;9469;51.114;13.914;2023-06-22T15:16:57;11.13;;;8.35;;
18677;SDS011;9469;51.114;13.914;2023-06-22T15:22:06;8.85;;;7.95;;
18677;SDS011;9469;51.114;13.914;2023-06-22T15:27:12;8.93;;;7.50;;
18677;SDS011;9469;51.114;13.914;2023-06-22T15:32:17;11.02;;;8.30;;
18677;SDS011;9469;51.114;13.914;2023-06-22T15:37:29;9.73;;;8.07;;
18677;SDS011;9469;51.114;13.914;2023-06-22T15:42:34;9.00;;;7.43;;
18677;SDS011;9469;51.114;13.914;2023-06-22T15:47:40;8.38;;;7.25;;
18677;SDS011;9469;51.114;13.914;2023-06-22T15:52:49;9.27;;;8.38;;
18677;SDS011;9469;51.114;13.914;2023-06-22T15:57:57;10.65;;;8.18;;
18677;SDS011;9469;51.114;13.914;2023-06-22T16:03:04;8.60;;;7.70;;
18677;SDS011;9469;51.114;13.914;2023-06-22T16:08:17;12.48;;;9.30;;
18677;SDS011;9469;51.114;13.914;2023-06-22T16:13:22;9.82;;;8.82;;
18677;SDS011;9469;51.114;13.914;2023-06-22T16:18:29;12.02;;;8.77;;
18677;SDS011;9469;51.114;13.914;2023-06-22T16:23:38;9.68;;;8.77;;
18677;SDS011;9469;51.114;13.914;2023-06-22T16:28:46;11.30;;;8.88;;
18677;SDS011;9469;51.114;13.914;2023-06-22T16:33:54;11.75;;;9.40;;
18677;SDS011;9469;51.114;13.914;2023-06-22T16:39:05;9.57;;;7.88;;
18677;SDS011;9469;51.114;13.914;2023-06-22T16:44:11;10.18;;;9.15;;
18677;SDS011;9469;51.114;13.914;2023-06-22T16:49:17;11.18;;;8.85;;
18677;SDS011;9469;51.114;13.914;2023-06-22T16:54:32;10.38;;;8.20;;
18677;SDS011;9469;51.114;13.914;2023-06-22T16:59:56;12.13;;;8.30;;
18677;SDS011;9469;51.114;13.914;2023-06-22T17:05:04;10.25;;;8.35;;
18677;SDS011;9469;51.114;13.914;2023-06-22T17:10:14;10.82;;;8.23;;
18677;SDS011;9469;51.114;13.914;2023-06-22T17:15:20;11.35;;;8.73;;
18677;SDS011;9469;51.114;13.914;2023-06-22T17:20:26;11.73;;;8.82;;
18677;SDS011;9469;51.114;13.914;2023-06-22T17:25:35;8.65;;;7.88;;
18677;SDS011;9469;51.114;13.914;2023-06-22T17:30:41;10.57;;;9.45;;
18677;SDS011;9469;51.114;13.914;2023-06-22T17:35:47;9.60;;;8.48;;
18677;SDS011;9469;51.114;13.914;2023-06-22T17:41:02;11.07;;;8.73;;
18677;SDS011;9469;51.114;13.914;2023-06-22T17:46:10;9.55;;;8.50;;
18677;SDS011;9469;51.114;13.914;2023-06-22T17:51:17;10.73;;;8.77;;
18677;SDS011;9469;51.114;13.914;2023-06-22T17:56:26;12.02;;;9.55;;
18677;SDS011;9469;51.114;13.914;2023-06-22T18:01:34;10.88;;;9.60;;
18677;SDS011;9469;51.114;13.914;2023-06-22T18:06:42;10.75;;;9.65;;
18677;SDS011;9469;51.114;13.914;2023-06-22T18:11:53;9.95;;;8.95;;
18677;SDS011;9469;51.114;13.914;2023-06-22T18:17:03;12.15;;;9.25;;
18677;SDS011;9469;51.114;13.914;2023-06-22T18:22:11;15.00;;;10.70;;
18677;SDS011;9469;51.114;13.914;2023-06-22T18:27:19;13.05;;;10.85;;
18677;SDS011;9469;51.114;13.914;2023-06-22T18:32:30;13.00;;;10.35;;
18677;SDS011;9469;51.114;13.914;2023-06-22T18:37:39;11.63;;;10.30;;
18677;SDS011;9469;51.114;13.914;2023-06-22T18:42:50;12.63;;;10.35;;
18677;SDS011;9469;51.114;13.914;2023-06-22T18:47:55;11.68;;;10.57;;
18677;SDS011;9469;51.114;13.914;2023-06-22T18:53:06;14.30;;;11.07;;
18677;SDS011;9469;51.114;13.914;2023-06-22T18:58:23;12.23;;;10.02;;
18677;SDS011;9469;51.114;13.914;2023-06-22T19:03:29;12.00;;;10.77;;
18677;SDS011;9469;51.114;13.914;2023-06-22T19:14:20;12.73;;;10.25;;
18677;SDS011;9469;51.114;13.914;2023-06-22T19:19:26;18.75;;;11.30;;
18677;SDS011;9469;51.114;13.914;2023-06-22T19:24:47;15.75;;;11.00;;
18677;SDS011;9469;51.114;13.914;2023-06-22T19:29:55;11.65;;;10.10;;
18677;SDS011;9469;51.114;13.914;2023-06-22T19:35:04;13.55;;;11.05;;
18677;SDS011;9469;51.114;13.914;2023-06-22T19:40:12;14.13;;;11.85;;
18677;SDS011;9469;51.114;13.914;2023-06-22T19:45:25;12.90;;;11.00;;
18677;SDS011;9469;51.114;13.914;2023-06-22T19:50:32;12.98;;;10.68;;
18677;SDS011;9469;51.114;13.914;2023-06-22T19:55:42;12.27;;;10.43;;
18677;SDS011;9469;51.114;13.914;2023-06-22T20:00:58;10.52;;;9.50;;
18677;SDS011;9469;51.114;13.914;2023-06-22T20:06:08;12.60;;;11.38;;
18677;SDS011;9469;51.114;13.914;2023-06-22T20:11:15;13.18;;;10.50;;
18677;SDS011;9469;51.114;13.914;2023-06-22T20:16:31;14.70;;;10.93;;
18677;SDS011;9469;51.114;13.914;2023-06-22T20:21:36;13.05;;;11.00;;
18677;SDS011;9469;51.114;13.914;2023-06-22T20:26:42;12.80;;;10.75;;
18677;SDS011;9469;51.114;13.914;2023-06-22T20:32:00;12.85;;;9.75;;
18677;SDS011;9469;51.114;13.914;2023-06-22T20:37:07;14.32;;;10.45;;
18677;SDS011;9469;51.114;13.914;2023-06-22T20:42:12;14.75;;;11.18;;
18677;SDS011;9469;51.114;13.914;2023-06-22T20:47:22;11.80;;;10.48;;
18677;SDS011;9469;51.114;13.914;2023-06-22T20:52:27;11.00;;;9.77;;
18677;SDS011;9469;51.114;13.914;2023-06-22T20:57:33;11.68;;;10.48;;
18677;SDS011;9469;51.114;13.914;2023-06-22T21:02:41;11.60;;;10.43;;
18677;SDS011;9469;51.114;13.914;2023-06-22T21:07:49;12.10;;;10.90;;
18677;SDS011;9469;51.114;13.914;2023-06-22T21:12:54;13.35;;;10.57;;
18677;SDS011;9469;51.114;13.914;2023-06-22T21:18:02;12.77;;;11.00;;
18677;SDS011;9469;51.114;13.914;2023-06-22T21:23:08;12.13;;;10.80;;
18677;SDS011;9469;51.114;13.914;2023-06-22T21:28:14;13.15;;;11.70;;
18677;SDS011;9469;51.114;13.914;2023-06-22T21:33:22;15.02;;;10.85;;
18677;SDS011;9469;51.114;13.914;2023-06-22T21:38:27;11.73;;;10.52;;
18677;SDS011;9469;51.114;13.914;2023-06-22T21:43:33;14.10;;;11.27;;
18677;SDS011;9469;51.114;13.914;2023-06-22T21:48:41;12.95;;;11.63;;
18677;SDS011;9469;51.114;13.914;2023-06-22T21:53:47;12.88;;;11.57;;
18677;SDS011;9469;51.114;13.914;2023-06-22T21:58:52;15.85;;;11.73;;
18677;SDS011;9469;51.114;13.914;2023-06-22T22:04:02;15.00;;;11.98;;
18677;SDS011;9469;51.114;13.914;2023-06-22T22:09:08;15.68;;;12.43;;
18677;SDS011;9469;51.114;13.914;2023-06-22T22:14:13;15.43;;;13.02;;
18677;SDS011;9469;51.114;13.914;2023-06-22T22:19:23;13.93;;;12.43;;
18677;SDS011;9469;51.114;13.914;2023-06-22T22:24:28;17.17;;;14.45;;
18677;SDS011;9469;51.114;13.914;2023-06-22T22:29:34;16.17;;;14.27;;
18677;SDS011;9469;51.114;13.914;2023-06-22T22:34:42;21.02;;;15.52;;
18677;SDS011;9469;51.114;13.914;2023-06-22T22:39:47;19.42;;;15.48;;
18677;SDS011;9469;51.114;13.914;2023-06-22T22:44:55;17.80;;;15.95;;
18677;SDS011;9469;51.114;13.914;2023-06-22T22:50:03;20.88;;;14.90;;
18677;SDS011;9469;51.114;13.914;2023-06-22T22:55:09;18.85;;;15.63;;
18677;SDS011;9469;51.114;13.914;2023-06-22T23:00:15;25.70;;;18.00;;
18677;SDS011;9469;51.114;13.914;2023-06-22T23:05:24;17.15;;;15.15;;
18677;SDS011;9469;51.114;13.914;2023-06-22T23:10:29;13.73;;;11.68;;
18677;SDS011;9469;51.114;13.914;2023-06-22T23:15:34;13.43;;;9.63;;
18677;SDS011;9469;51.114;13.914;2023-06-22T23:20:42;14.37;;;9.17;;
18677;SDS011;9469;51.114;13.914;2023-06-22T23:25:47;8.90;;;7.10;;
18677;SDS011;9469;51.114;13.914;2023-06-22T23:30:52;13.27;;;7.57;;
18677;SDS011;9469;51.114;13.914;2023-06-22T23:36:00;2.27;;;1.13;;
18677;SDS011;9469;51.114;13.914;2023-06-22T23:41:06;3.63;;;1.50;;
18677;SDS011;9469;51.114;13.914;2023-06-22T23:46:14;2.30;;;0.60;;
18677;SDS011;9469;51.114;13.914;2023-06-22T23:51:24;2.63;;;1.20;;
18677;SDS011;9469;51.114;13.914;2023-06-22T23:56:30;4.73;;;1.10;;
